Accueil
METAR-TAF:

METAR-TAF

Aéroports :

Aéroport de Reus

Reus, Espagne

latitude: 41-09N, longitude: 001-10E, altitude: 71 m

Observation

Le bulletin a été fait il y a 18 minutes, à 15:30 UTC
Vent 5 kt de sud, variant entre sud-est et sud-ouest
Température 20°C
Humidité 73%
Pression 1024 hPa
Visibilité 10 km ou plus
pas de nuages en-dessous de 1500 mètres et pas de cumulonimbus.

METAR: LERS 301530Z 19005KT 140V230 CAVOK 20/15 Q1024

Heure: 16:48 (15:48 UTC)

Prévision

Le bulletin a été fait il y a 1 heure et 48 minutes, à 14:00 UTC
Prévision valable du 30 à 15 UTC au 31 à 15 UTC
Vent 4 kt de direction variable
Visibilité 10 km ou plus
Quelques nuages à une hauteur de 3000 ft
Probabilité 30% :
Temporairement
du 30 à 15 UTC au 30 à 16 UTC
Vent 10 kt de sud

TAF: LERS 301400Z 3015/3115 VRB04KT 9999 FEW030 TX24/3112Z TN10/3106Z PROB30 TEMPO 3015/3016 18010KT

Observations et prévisions météorologiques de plus de 4000 aéroports (messages METAR et TAF).

Les stations disponibles sont représentées par des disques jaunes et rouges sur la carte.

Passer la souris dessus pour voir le nom de la station.

Cliquer dessus pour voir les observations et prévisions météorologiques.

Pour changer de carte: cliquez sur les boutons verts avec une croix noire pour zoomer, sur le bouton vert avec un tiret pour effectuer un zoom arrière, ou sur les flèches vertes pour les cartes adjacentes.


METAR-TAF: